sensor_id;sensor_type;location;lat;lon;timestamp;temperature;humidity
69261;DHT22;56378;52.404;20.816;2024-01-11T00:00:48;-6.00;99.90
69261;DHT22;56378;52.404;20.816;2024-01-11T00:03:14;-6.00;99.90
69261;DHT22;56378;52.404;20.816;2024-01-11T00:05:40;-6.00;99.90
69261;DHT22;56378;52.404;20.816;2024-01-11T00:08:07;-6.00;99.90
69261;DHT22;56378;52.404;20.816;2024-01-11T00:10:33;-6.10;99.90
69261;DHT22;56378;52.404;20.816;2024-01-11T00:12:58;-6.10;99.90
69261;DHT22;56378;52.404;20.816;2024-01-11T00:15:24;-6.10;99.90
69261;DHT22;56378;52.404;20.816;2024-01-11T00:17:50;-6.10;99.90
69261;DHT22;56378;52.404;20.816;2024-01-11T00:20:15;-6.10;99.90
69261;DHT22;56378;52.404;20.816;2024-01-11T00:22:41;-6.10;99.90
69261;DHT22;56378;52.404;20.816;2024-01-11T00:25:08;-6.10;99.90
69261;DHT22;56378;52.404;20.816;2024-01-11T00:27:34;-6.10;99.90
69261;DHT22;56378;52.404;20.816;2024-01-11T00:30:00;-6.20;99.90
69261;DHT22;56378;52.404;20.816;2024-01-11T00:32:25;-6.20;99.90
69261;DHT22;56378;52.404;20.816;2024-01-11T00:34:51;-6.20;99.90
69261;DHT22;56378;52.404;20.816;2024-01-11T00:37:18;-6.20;99.90
69261;DHT22;56378;52.404;20.816;2024-01-11T00:39:43;-6.20;99.90
69261;DHT22;56378;52.404;20.816;2024-01-11T00:42:10;-6.30;99.90
69261;DHT22;56378;52.404;20.816;2024-01-11T00:44:35;-6.30;99.90
69261;DHT22;56378;52.404;20.816;2024-01-11T00:47:01;-6.30;99.90
69261;DHT22;56378;52.404;20.816;2024-01-11T00:49:27;-6.30;99.90
69261;DHT22;56378;52.404;20.816;2024-01-11T00:51:53;-6.30;99.90
69261;DHT22;56378;52.404;20.816;2024-01-11T00:54:18;-6.30;99.90
69261;DHT22;56378;52.404;20.816;2024-01-11T00:56:44;-6.30;99.90
69261;DHT22;56378;52.404;20.816;2024-01-11T00:59:10;-6.30;99.90
69261;DHT22;56378;52.404;20.816;2024-01-11T01:01:35;-6.30;99.90
69261;DHT22;56378;52.404;20.816;2024-01-11T01:04:01;-6.30;99.90
69261;DHT22;56378;52.404;20.816;2024-01-11T01:06:28;-6.30;99.90
69261;DHT22;56378;52.404;20.816;2024-01-11T01:08:55;-6.30;99.90
69261;DHT22;56378;52.404;20.816;2024-01-11T01:11:20;-6.30;99.90
69261;DHT22;56378;52.404;20.816;2024-01-11T01:13:46;-6.40;99.90
69261;DHT22;56378;52.404;20.816;2024-01-11T01:16:12;-6.40;99.90
69261;DHT22;56378;52.404;20.816;2024-01-11T01:18:37;-6.40;99.90
69261;DHT22;56378;52.404;20.816;2024-01-11T01:21:03;-6.40;99.90
69261;DHT22;56378;52.404;20.816;2024-01-11T01:23:32;-6.40;99.90
69261;DHT22;56378;52.404;20.816;2024-01-11T01:25:58;-6.40;99.90
69261;DHT22;56378;52.404;20.816;2024-01-11T01:28:23;-6.40;99.90
69261;DHT22;56378;52.404;20.816;2024-01-11T01:30:49;-6.40;99.90
69261;DHT22;56378;52.404;20.816;2024-01-11T01:33:15;-6.40;99.90
69261;DHT22;56378;52.404;20.816;2024-01-11T01:35:40;-6.40;99.90
69261;DHT22;56378;52.404;20.816;2024-01-11T01:38:06;-6.40;99.90
69261;DHT22;56378;52.404;20.816;2024-01-11T01:40:31;-6.40;99.90
69261;DHT22;56378;52.404;20.816;2024-01-11T01:43:00;-6.40;99.90
69261;DHT22;56378;52.404;20.816;2024-01-11T01:45:26;-6.40;99.90
69261;DHT22;56378;52.404;20.816;2024-01-11T01:47:53;-6.40;99.90
69261;DHT22;56378;52.404;20.816;2024-01-11T01:50:20;-6.40;99.90
69261;DHT22;56378;52.404;20.816;2024-01-11T01:52:46;-6.40;99.90
69261;DHT22;56378;52.404;20.816;2024-01-11T01:55:15;-6.50;99.90
69261;DHT22;56378;52.404;20.816;2024-01-11T01:57:42;-6.50;99.90
69261;DHT22;56378;52.404;20.816;2024-01-11T02:00:10;-6.50;99.90
69261;DHT22;56378;52.404;20.816;2024-01-11T02:02:38;-6.50;99.90
69261;DHT22;56378;52.404;20.816;2024-01-11T02:05:06;-6.40;99.90
69261;DHT22;56378;52.404;20.816;2024-01-11T02:07:33;-6.40;99.90
69261;DHT22;56378;52.404;20.816;2024-01-11T02:09:59;-6.40;99.90
69261;DHT22;56378;52.404;20.816;2024-01-11T02:12:25;-6.40;99.90
69261;DHT22;56378;52.404;20.816;2024-01-11T02:14:53;-6.40;99.90
69261;DHT22;56378;52.404;20.816;2024-01-11T02:17:19;-6.40;99.90
69261;DHT22;56378;52.404;20.816;2024-01-11T02:19:44;-6.40;99.90
69261;DHT22;56378;52.404;20.816;2024-01-11T02:22:32;-6.40;99.90
69261;DHT22;56378;52.404;20.816;2024-01-11T02:24:59;-6.40;99.90
69261;DHT22;56378;52.404;20.816;2024-01-11T02:27:25;-6.40;99.90
69261;DHT22;56378;52.404;20.816;2024-01-11T02:29:51;-6.30;99.90
69261;DHT22;56378;52.404;20.816;2024-01-11T02:32:16;-6.30;99.90
69261;DHT22;56378;52.404;20.816;2024-01-11T02:34:42;-6.40;99.90
69261;DHT22;56378;52.404;20.816;2024-01-11T02:37:08;-6.40;99.90
69261;DHT22;56378;52.404;20.816;2024-01-11T02:39:34;-6.30;99.90
69261;DHT22;56378;52.404;20.816;2024-01-11T02:42:00;-6.30;99.90
69261;DHT22;56378;52.404;20.816;2024-01-11T02:44:26;-6.30;99.90
69261;DHT22;56378;52.404;20.816;2024-01-11T02:46:52;-6.30;99.90
69261;DHT22;56378;52.404;20.816;2024-01-11T02:49:18;-6.30;99.90
69261;DHT22;56378;52.404;20.816;2024-01-11T02:51:43;-6.30;99.90
69261;DHT22;56378;52.404;20.816;2024-01-11T02:54:09;-6.20;99.90
69261;DHT22;56378;52.404;20.816;2024-01-11T02:56:35;-6.10;99.90
69261;DHT22;56378;52.404;20.816;2024-01-11T02:59:00;-6.10;99.90
69261;DHT22;56378;52.404;20.816;2024-01-11T03:01:26;-6.10;99.90
69261;DHT22;56378;52.404;20.816;2024-01-11T03:03:52;-6.10;99.90
69261;DHT22;56378;52.404;20.816;2024-01-11T03:06:18;-6.10;99.90
69261;DHT22;56378;52.404;20.816;2024-01-11T03:08:47;-6.10;99.90
69261;DHT22;56378;52.404;20.816;2024-01-11T03:11:14;-6.10;99.90
69261;DHT22;56378;52.404;20.816;2024-01-11T03:13:39;-6.10;99.90
69261;DHT22;56378;52.404;20.816;2024-01-11T03:16:05;-6.10;99.90
69261;DHT22;56378;52.404;20.816;2024-01-11T03:18:32;-6.10;99.90
69261;DHT22;56378;52.404;20.816;2024-01-11T03:20:57;-6.00;99.90
69261;DHT22;56378;52.404;20.816;2024-01-11T03:23:23;-6.00;99.90
69261;DHT22;56378;52.404;20.816;2024-01-11T03:25:49;-6.00;99.90
69261;DHT22;56378;52.404;20.816;2024-01-11T03:28:15;-6.00;99.90
69261;DHT22;56378;52.404;20.816;2024-01-11T03:30:41;-6.00;99.90
69261;DHT22;56378;52.404;20.816;2024-01-11T03:33:06;-6.00;99.90
69261;DHT22;56378;52.404;20.816;2024-01-11T03:35:32;-5.90;99.90
69261;DHT22;56378;52.404;20.816;2024-01-11T03:37:58;-5.90;99.90
69261;DHT22;56378;52.404;20.816;2024-01-11T03:40:23;-5.90;99.90
69261;DHT22;56378;52.404;20.816;2024-01-11T03:42:49;-5.90;99.90
69261;DHT22;56378;52.404;20.816;2024-01-11T03:45:18;-5.90;99.90
69261;DHT22;56378;52.404;20.816;2024-01-11T03:47:45;-5.90;99.90
69261;DHT22;56378;52.404;20.816;2024-01-11T03:50:11;-5.90;99.90
69261;DHT22;56378;52.404;20.816;2024-01-11T03:52:37;-5.90;99.90
69261;DHT22;56378;52.404;20.816;2024-01-11T03:55:03;-5.90;99.90
69261;DHT22;56378;52.404;20.816;2024-01-11T03:57:28;-5.80;99.90
69261;DHT22;56378;52.404;20.816;2024-01-11T03:59:54;-5.90;99.90
69261;DHT22;56378;52.404;20.816;2024-01-11T04:02:20;-5.80;99.90
69261;DHT22;56378;52.404;20.816;2024-01-11T04:04:46;-5.80;99.90
69261;DHT22;56378;52.404;20.816;2024-01-11T04:07:11;-5.80;99.90
69261;DHT22;56378;52.404;20.816;2024-01-11T04:09:38;-5.80;99.90
69261;DHT22;56378;52.404;20.816;2024-01-11T04:12:04;-5.80;99.90
69261;DHT22;56378;52.404;20.816;2024-01-11T04:14:31;-5.80;99.90
69261;DHT22;56378;52.404;20.816;2024-01-11T04:16:56;-5.80;99.90
69261;DHT22;56378;52.404;20.816;2024-01-11T04:19:22;-5.80;99.90
69261;DHT22;56378;52.404;20.816;2024-01-11T04:21:48;-5.80;99.90
69261;DHT22;56378;52.404;20.816;2024-01-11T04:24:13;-5.80;99.90
69261;DHT22;56378;52.404;20.816;2024-01-11T04:26:40;-5.80;99.90
69261;DHT22;56378;52.404;20.816;2024-01-11T04:29:06;-5.90;99.90
69261;DHT22;56378;52.404;20.816;2024-01-11T04:31:32;-5.90;99.90
69261;DHT22;56378;52.404;20.816;2024-01-11T04:33:59;-5.90;99.90
69261;DHT22;56378;52.404;20.816;2024-01-11T04:36:24;-5.90;99.90
69261;DHT22;56378;52.404;20.816;2024-01-11T04:38:50;-5.90;99.90
69261;DHT22;56378;52.404;20.816;2024-01-11T04:41:16;-5.80;99.90
69261;DHT22;56378;52.404;20.816;2024-01-11T04:43:44;-5.80;99.90
69261;DHT22;56378;52.404;20.816;2024-01-11T04:46:18;-5.80;99.90
69261;DHT22;56378;52.404;20.816;2024-01-11T04:48:44;-5.80;99.90
69261;DHT22;56378;52.404;20.816;2024-01-11T04:51:10;-5.80;99.90
69261;DHT22;56378;52.404;20.816;2024-01-11T04:53:40;-5.70;99.90
69261;DHT22;56378;52.404;20.816;2024-01-11T04:56:10;-5.80;99.90
69261;DHT22;56378;52.404;20.816;2024-01-11T04:58:38;-5.80;99.90
69261;DHT22;56378;52.404;20.816;2024-01-11T05:01:17;-5.80;99.90
69261;DHT22;56378;52.404;20.816;2024-01-11T05:03:44;-5.80;99.90
69261;DHT22;56378;52.404;20.816;2024-01-11T05:06:20;-5.80;99.90
69261;DHT22;56378;52.404;20.816;2024-01-11T05:08:51;-5.80;99.90
69261;DHT22;56378;52.404;20.816;2024-01-11T05:11:18;-5.80;99.90
69261;DHT22;56378;52.404;20.816;2024-01-11T05:13:44;-5.80;99.90
69261;DHT22;56378;52.404;20.816;2024-01-11T05:16:31;-5.80;99.90
69261;DHT22;56378;52.404;20.816;2024-01-11T05:18:58;-5.80;99.90
69261;DHT22;56378;52.404;20.816;2024-01-11T05:21:24;-5.80;99.90
69261;DHT22;56378;52.404;20.816;2024-01-11T05:23:50;-5.80;99.90
69261;DHT22;56378;52.404;20.816;2024-01-11T05:26:17;-5.80;99.90
69261;DHT22;56378;52.404;20.816;2024-01-11T05:28:43;-5.80;99.90
69261;DHT22;56378;52.404;20.816;2024-01-11T05:31:13;-5.80;99.90
69261;DHT22;56378;52.404;20.816;2024-01-11T05:33:40;-5.80;99.90
69261;DHT22;56378;52.404;20.816;2024-01-11T05:36:06;-5.70;99.90
69261;DHT22;56378;52.404;20.816;2024-01-11T05:38:32;-5.80;99.90
69261;DHT22;56378;52.404;20.816;2024-01-11T05:40:58;-5.80;99.90
69261;DHT22;56378;52.404;20.816;2024-01-11T05:43:24;-5.80;99.90
69261;DHT22;56378;52.404;20.816;2024-01-11T05:45:50;-5.90;99.90
69261;DHT22;56378;52.404;20.816;2024-01-11T05:48:16;-5.90;99.90
69261;DHT22;56378;52.404;20.816;2024-01-11T05:50:43;-5.90;99.90
69261;DHT22;56378;52.404;20.816;2024-01-11T05:53:09;-5.90;99.90
69261;DHT22;56378;52.404;20.816;2024-01-11T05:55:35;-5.90;99.90
69261;DHT22;56378;52.404;20.816;2024-01-11T05:58:00;-5.90;99.90
69261;DHT22;56378;52.404;20.816;2024-01-11T06:00:26;-5.90;99.90
69261;DHT22;56378;52.404;20.816;2024-01-11T06:02:52;-5.90;99.90
69261;DHT22;56378;52.404;20.816;2024-01-11T06:05:18;-5.90;99.90
69261;DHT22;56378;52.404;20.816;2024-01-11T06:07:44;-5.90;99.90
69261;DHT22;56378;52.404;20.816;2024-01-11T06:10:10;-5.90;99.90
69261;DHT22;56378;52.404;20.816;2024-01-11T06:12:36;-6.00;99.90
69261;DHT22;56378;52.404;20.816;2024-01-11T06:15:02;-6.00;99.90
69261;DHT22;56378;52.404;20.816;2024-01-11T06:17:28;-6.00;99.90
69261;DHT22;56378;52.404;20.816;2024-01-11T06:19:55;-6.00;99.90
69261;DHT22;56378;52.404;20.816;2024-01-11T06:22:20;-6.00;99.90
69261;DHT22;56378;52.404;20.816;2024-01-11T06:24:46;-6.00;99.90
69261;DHT22;56378;52.404;20.816;2024-01-11T06:27:12;-6.00;99.90
69261;DHT22;56378;52.404;20.816;2024-01-11T06:29:38;-6.00;99.90
69261;DHT22;56378;52.404;20.816;2024-01-11T06:32:04;-5.90;99.90
69261;DHT22;56378;52.404;20.816;2024-01-11T06:34:30;-5.90;99.90
69261;DHT22;56378;52.404;20.816;2024-01-11T06:36:56;-5.90;99.90
69261;DHT22;56378;52.404;20.816;2024-01-11T06:39:21;-5.90;99.90
69261;DHT22;56378;52.404;20.816;2024-01-11T06:41:47;-5.90;99.90
69261;DHT22;56378;52.404;20.816;2024-01-11T06:44:13;-5.80;99.90
69261;DHT22;56378;52.404;20.816;2024-01-11T06:46:38;-5.80;99.90
69261;DHT22;56378;52.404;20.816;2024-01-11T06:49:08;-5.80;99.90
69261;DHT22;56378;52.404;20.816;2024-01-11T06:51:34;-5.80;99.90
69261;DHT22;56378;52.404;20.816;2024-01-11T06:54:00;-5.80;99.90
69261;DHT22;56378;52.404;20.816;2024-01-11T06:56:27;-5.80;99.90
69261;DHT22;56378;52.404;20.816;2024-01-11T06:58:52;-5.80;99.90
69261;DHT22;56378;52.404;20.816;2024-01-11T07:01:19;-5.80;99.90
69261;DHT22;56378;52.404;20.816;2024-01-11T07:03:45;-5.70;99.90
69261;DHT22;56378;52.404;20.816;2024-01-11T07:06:11;-5.70;99.90
69261;DHT22;56378;52.404;20.816;2024-01-11T07:08:37;-5.70;99.90
69261;DHT22;56378;52.404;20.816;2024-01-11T07:11:03;-5.70;99.90
69261;DHT22;56378;52.404;20.816;2024-01-11T07:13:29;-5.70;99.90
69261;DHT22;56378;52.404;20.816;2024-01-11T07:15:55;-5.60;99.90
69261;DHT22;56378;52.404;20.816;2024-01-11T07:18:22;-5.60;99.90
69261;DHT22;56378;52.404;20.816;2024-01-11T07:20:48;-5.50;99.90
69261;DHT22;56378;52.404;20.816;2024-01-11T07:23:14;-5.50;99.90
69261;DHT22;56378;52.404;20.816;2024-01-11T07:25:40;-5.50;99.90
69261;DHT22;56378;52.404;20.816;2024-01-11T07:28:06;-5.40;99.90
69261;DHT22;56378;52.404;20.816;2024-01-11T07:30:32;-5.40;99.90
69261;DHT22;56378;52.404;20.816;2024-01-11T07:32:58;-5.40;99.90
69261;DHT22;56378;52.404;20.816;2024-01-11T07:35:24;-5.40;99.90
69261;DHT22;56378;52.404;20.816;2024-01-11T07:37:50;-5.30;99.90
69261;DHT22;56378;52.404;20.816;2024-01-11T07:40:15;-5.40;99.90
69261;DHT22;56378;52.404;20.816;2024-01-11T07:42:42;-5.30;99.90
69261;DHT22;56378;52.404;20.816;2024-01-11T07:45:09;-5.30;99.90
69261;DHT22;56378;52.404;20.816;2024-01-11T07:47:36;-5.20;99.90
69261;DHT22;56378;52.404;20.816;2024-01-11T07:50:06;-5.20;99.90
69261;DHT22;56378;52.404;20.816;2024-01-11T07:52:33;-5.20;99.90
69261;DHT22;56378;52.404;20.816;2024-01-11T07:54:58;-5.10;99.90
69261;DHT22;56378;52.404;20.816;2024-01-11T07:57:32;-5.10;99.90
69261;DHT22;56378;52.404;20.816;2024-01-11T07:59:58;-5.20;99.90
69261;DHT22;56378;52.404;20.816;2024-01-11T08:02:25;-5.20;99.90
69261;DHT22;56378;52.404;20.816;2024-01-11T08:04:50;-5.10;99.90
69261;DHT22;56378;52.404;20.816;2024-01-11T08:07:16;-5.10;99.90
69261;DHT22;56378;52.404;20.816;2024-01-11T08:09:42;-5.10;99.90
69261;DHT22;56378;52.404;20.816;2024-01-11T08:12:17;-5.10;99.90
69261;DHT22;56378;52.404;20.816;2024-01-11T08:14:42;-5.10;99.90
69261;DHT22;56378;52.404;20.816;2024-01-11T08:17:08;-5.00;99.90
69261;DHT22;56378;52.404;20.816;2024-01-11T08:19:35;-5.00;99.90
69261;DHT22;56378;52.404;20.816;2024-01-11T08:22:01;-5.00;99.90
69261;DHT22;56378;52.404;20.816;2024-01-11T08:24:27;-4.90;99.90
69261;DHT22;56378;52.404;20.816;2024-01-11T08:26:53;-4.90;99.90
69261;DHT22;56378;52.404;20.816;2024-01-11T08:29:19;-4.90;99.90
69261;DHT22;56378;52.404;20.816;2024-01-11T08:31:46;-4.80;99.90
69261;DHT22;56378;52.404;20.816;2024-01-11T08:34:11;-4.80;99.90
69261;DHT22;56378;52.404;20.816;2024-01-11T08:36:37;-4.80;99.90
69261;DHT22;56378;52.404;20.816;2024-01-11T08:39:05;-4.70;99.90
69261;DHT22;56378;52.404;20.816;2024-01-11T08:41:34;-4.70;99.90
69261;DHT22;56378;52.404;20.816;2024-01-11T08:44:09;-4.60;99.90
69261;DHT22;56378;52.404;20.816;2024-01-11T08:46:35;-4.60;99.90
69261;DHT22;56378;52.404;20.816;2024-01-11T08:49:02;-4.60;99.90
69261;DHT22;56378;52.404;20.816;2024-01-11T08:51:31;-4.50;99.90
69261;DHT22;56378;52.404;20.816;2024-01-11T08:53:58;-4.50;99.90
69261;DHT22;56378;52.404;20.816;2024-01-11T08:56:23;-4.40;99.90
69261;DHT22;56378;52.404;20.816;2024-01-11T08:58:49;-4.40;99.90
69261;DHT22;56378;52.404;20.816;2024-01-11T09:01:15;-4.30;99.90
69261;DHT22;56378;52.404;20.816;2024-01-11T09:03:41;-4.20;99.90
69261;DHT22;56378;52.404;20.816;2024-01-11T09:06:07;-4.20;99.90
69261;DHT22;56378;52.404;20.816;2024-01-11T09:08:33;-4.10;99.90
69261;DHT22;56378;52.404;20.816;2024-01-11T09:10:59;-4.10;99.90
69261;DHT22;56378;52.404;20.816;2024-01-11T09:13:28;-4.00;99.90
69261;DHT22;56378;52.404;20.816;2024-01-11T09:15:54;-4.00;99.90
69261;DHT22;56378;52.404;20.816;2024-01-11T09:18:20;-3.90;99.90
69261;DHT22;56378;52.404;20.816;2024-01-11T09:20:46;-3.80;99.90
69261;DHT22;56378;52.404;20.816;2024-01-11T09:23:13;-3.70;99.90
69261;DHT22;56378;52.404;20.816;2024-01-11T09:25:39;-3.70;99.90
69261;DHT22;56378;52.404;20.816;2024-01-11T09:28:05;-3.60;99.90
69261;DHT22;56378;52.404;20.816;2024-01-11T09:30:31;-3.50;99.90
69261;DHT22;56378;52.404;20.816;2024-01-11T09:32:57;-3.50;99.90
69261;DHT22;56378;52.404;20.816;2024-01-11T09:35:23;-3.40;99.90
69261;DHT22;56378;52.404;20.816;2024-01-11T09:37:49;-3.40;99.90
69261;DHT22;56378;52.404;20.816;2024-01-11T09:40:15;-3.40;99.90
69261;DHT22;56378;52.404;20.816;2024-01-11T09:42:42;-3.40;99.90
69261;DHT22;56378;52.404;20.816;2024-01-11T09:45:12;-3.30;99.90
69261;DHT22;56378;52.404;20.816;2024-01-11T09:47:39;-3.30;99.90
69261;DHT22;56378;52.404;20.816;2024-01-11T09:50:07;-3.20;99.90
69261;DHT22;56378;52.404;20.816;2024-01-11T09:52:33;-3.20;99.90
69261;DHT22;56378;52.404;20.816;2024-01-11T09:55:01;-3.20;99.90
69261;DHT22;56378;52.404;20.816;2024-01-11T09:57:31;-3.20;99.90
69261;DHT22;56378;52.404;20.816;2024-01-11T10:00:04;-3.10;99.90
69261;DHT22;56378;52.404;20.816;2024-01-11T10:02:33;-3.10;99.90
69261;DHT22;56378;52.404;20.816;2024-01-11T10:04:59;-3.10;99.90
69261;DHT22;56378;52.404;20.816;2024-01-11T10:07:25;-3.10;99.90
69261;DHT22;56378;52.404;20.816;2024-01-11T10:09:51;-3.10;99.90
69261;DHT22;56378;52.404;20.816;2024-01-11T10:12:23;-3.20;99.90
69261;DHT22;56378;52.404;20.816;2024-01-11T10:14:50;-3.10;99.90
69261;DHT22;56378;52.404;20.816;2024-01-11T10:17:18;-3.10;99.90
69261;DHT22;56378;52.404;20.816;2024-01-11T10:19:43;-3.00;99.90
69261;DHT22;56378;52.404;20.816;2024-01-11T10:22:10;-3.00;99.90
69261;DHT22;56378;52.404;20.816;2024-01-11T10:24:42;-2.90;99.90
69261;DHT22;56378;52.404;20.816;2024-01-11T10:27:09;-2.90;99.90
69261;DHT22;56378;52.404;20.816;2024-01-11T10:29:35;-2.90;99.90
69261;DHT22;56378;52.404;20.816;2024-01-11T10:32:04;-2.90;99.90
69261;DHT22;56378;52.404;20.816;2024-01-11T10:34:30;-2.80;99.90
69261;DHT22;56378;52.404;20.816;2024-01-11T10:36:56;-2.80;99.90
69261;DHT22;56378;52.404;20.816;2024-01-11T10:39:26;-2.70;99.90
69261;DHT22;56378;52.404;20.816;2024-01-11T10:42:04;-2.70;99.90
69261;DHT22;56378;52.404;20.816;2024-01-11T10:44:33;-2.60;99.90
69261;DHT22;56378;52.404;20.816;2024-01-11T10:46:59;-2.60;99.90
69261;DHT22;56378;52.404;20.816;2024-01-11T10:49:30;-2.60;99.90
69261;DHT22;56378;52.404;20.816;2024-01-11T10:51:59;-2.50;99.90
69261;DHT22;56378;52.404;20.816;2024-01-11T10:54:27;-2.50;99.90
69261;DHT22;56378;52.404;20.816;2024-01-11T10:56:54;-2.50;99.90
69261;DHT22;56378;52.404;20.816;2024-01-11T10:59:21;-2.50;99.90
69261;DHT22;56378;52.404;20.816;2024-01-11T11:01:54;-2.50;99.90
69261;DHT22;56378;52.404;20.816;2024-01-11T11:04:22;-2.40;99.90
69261;DHT22;56378;52.404;20.816;2024-01-11T11:06:51;-2.40;99.90
69261;DHT22;56378;52.404;20.816;2024-01-11T11:09:20;-2.30;99.90
69261;DHT22;56378;52.404;20.816;2024-01-11T11:11:47;-2.30;99.90
69261;DHT22;56378;52.404;20.816;2024-01-11T11:14:15;-2.30;99.90
69261;DHT22;56378;52.404;20.816;2024-01-11T11:16:41;-2.30;99.90
69261;DHT22;56378;52.404;20.816;2024-01-11T11:19:07;-2.20;99.90
69261;DHT22;56378;52.404;20.816;2024-01-11T11:21:40;-2.20;99.90
69261;DHT22;56378;52.404;20.816;2024-01-11T11:24:06;-2.10;99.90
69261;DHT22;56378;52.404;20.816;2024-01-11T11:26:32;-2.00;99.90
69261;DHT22;56378;52.404;20.816;2024-01-11T11:28:58;-2.00;99.90
69261;DHT22;56378;52.404;20.816;2024-01-11T11:31:37;-1.90;99.90
69261;DHT22;56378;52.404;20.816;2024-01-11T11:34:06;-1.90;99.90
69261;DHT22;56378;52.404;20.816;2024-01-11T11:36:33;-1.80;99.90
69261;DHT22;56378;52.404;20.816;2024-01-11T11:39:01;-1.70;99.90
69261;DHT22;56378;52.404;20.816;2024-01-11T11:41:27;-1.70;99.90
69261;DHT22;56378;52.404;20.816;2024-01-11T11:43:53;-1.70;99.90
69261;DHT22;56378;52.404;20.816;2024-01-11T11:46:19;-1.70;99.90
69261;DHT22;56378;52.404;20.816;2024-01-11T11:51:16;-1.60;99.90
69261;DHT22;56378;52.404;20.816;2024-01-11T11:53:42;-1.60;99.90
69261;DHT22;56378;52.404;20.816;2024-01-11T11:56:09;-1.60;99.90
69261;DHT22;56378;52.404;20.816;2024-01-11T11:58:36;-1.60;99.90
69261;DHT22;56378;52.404;20.816;2024-01-11T12:01:03;-1.60;99.90
69261;DHT22;56378;52.404;20.816;2024-01-11T12:05:56;-1.60;99.90
69261;DHT22;56378;52.404;20.816;2024-01-11T12:08:22;-1.60;99.90
69261;DHT22;56378;52.404;20.816;2024-01-11T12:10:47;-1.50;99.90
69261;DHT22;56378;52.404;20.816;2024-01-11T12:13:14;-1.50;99.90
69261;DHT22;56378;52.404;20.816;2024-01-11T12:15:40;-1.50;99.90
69261;DHT22;56378;52.404;20.816;2024-01-11T12:18:06;-1.50;99.90
69261;DHT22;56378;52.404;20.816;2024-01-11T12:20:35;-1.60;99.90
69261;DHT22;56378;52.404;20.816;2024-01-11T12:23:02;-1.50;99.90
69261;DHT22;56378;52.404;20.816;2024-01-11T12:25:28;-1.40;99.90
69261;DHT22;56378;52.404;20.816;2024-01-11T12:27:58;-1.40;99.90
69261;DHT22;56378;52.404;20.816;2024-01-11T12:30:25;-1.40;99.90
69261;DHT22;56378;52.404;20.816;2024-01-11T12:32:51;-1.40;99.90
69261;DHT22;56378;52.404;20.816;2024-01-11T12:35:17;-1.30;99.90
69261;DHT22;56378;52.404;20.816;2024-01-11T12:38:08;-1.30;99.90
69261;DHT22;56378;52.404;20.816;2024-01-11T12:40:37;-1.30;99.90
69261;DHT22;56378;52.404;20.816;2024-01-11T12:43:06;-1.30;99.90
69261;DHT22;56378;52.404;20.816;2024-01-11T12:45:35;-1.40;99.90
69261;DHT22;56378;52.404;20.816;2024-01-11T12:48:02;-1.30;99.90
69261;DHT22;56378;52.404;20.816;2024-01-11T12:50:30;-1.20;99.90
69261;DHT22;56378;52.404;20.816;2024-01-11T12:53:09;-1.30;99.90
69261;DHT22;56378;52.404;20.816;2024-01-11T12:55:37;-1.20;99.90
69261;DHT22;56378;52.404;20.816;2024-01-11T12:58:07;-1.20;99.90
69261;DHT22;56378;52.404;20.816;2024-01-11T13:00:37;-1.20;99.90
69261;DHT22;56378;52.404;20.816;2024-01-11T13:03:07;-1.20;99.90
69261;DHT22;56378;52.404;20.816;2024-01-11T13:05:35;-1.20;99.90
69261;DHT22;56378;52.404;20.816;2024-01-11T13:08:02;-1.10;99.90
69261;DHT22;56378;52.404;20.816;2024-01-11T13:10:28;-1.10;99.90
69261;DHT22;56378;52.404;20.816;2024-01-11T13:12:54;-1.10;99.90
69261;DHT22;56378;52.404;20.816;2024-01-11T13:15:20;-1.10;99.90
69261;DHT22;56378;52.404;20.816;2024-01-11T13:17:47;-1.10;99.90
69261;DHT22;56378;52.404;20.816;2024-01-11T13:20:12;-1.10;99.90
69261;DHT22;56378;52.404;20.816;2024-01-11T13:22:38;-1.10;99.90
69261;DHT22;56378;52.404;20.816;2024-01-11T13:25:04;-1.10;99.90
69261;DHT22;56378;52.404;20.816;2024-01-11T13:27:30;-1.10;99.90
69261;DHT22;56378;52.404;20.816;2024-01-11T13:29:57;-1.10;99.90
69261;DHT22;56378;52.404;20.816;2024-01-11T13:32:23;-1.10;99.90
69261;DHT22;56378;52.404;20.816;2024-01-11T13:34:49;-1.10;99.90
69261;DHT22;56378;52.404;20.816;2024-01-11T13:37:19;-1.00;99.90
69261;DHT22;56378;52.404;20.816;2024-01-11T13:39:45;-1.00;99.90
69261;DHT22;56378;52.404;20.816;2024-01-11T13:42:11;-0.90;99.90
69261;DHT22;56378;52.404;20.816;2024-01-11T13:44:38;-0.90;99.90
69261;DHT22;56378;52.404;20.816;2024-01-11T13:47:04;-0.90;99.90
69261;DHT22;56378;52.404;20.816;2024-01-11T13:49:29;-0.90;99.90
69261;DHT22;56378;52.404;20.816;2024-01-11T13:51:56;-0.80;99.90
69261;DHT22;56378;52.404;20.816;2024-01-11T13:54:21;-0.80;99.90
69261;DHT22;56378;52.404;20.816;2024-01-11T13:56:47;-0.80;99.90
69261;DHT22;56378;52.404;20.816;2024-01-11T13:59:13;-0.80;99.90
69261;DHT22;56378;52.404;20.816;2024-01-11T14:01:39;-0.70;99.90
69261;DHT22;56378;52.404;20.816;2024-01-11T14:04:05;-0.70;99.90
69261;DHT22;56378;52.404;20.816;2024-01-11T14:06:31;-0.70;99.90
69261;DHT22;56378;52.404;20.816;2024-01-11T14:08:57;-0.70;99.90
69261;DHT22;56378;52.404;20.816;2024-01-11T14:11:23;-0.60;99.90
69261;DHT22;56378;52.404;20.816;2024-01-11T14:13:48;-0.70;99.90
69261;DHT22;56378;52.404;20.816;2024-01-11T14:16:14;-0.60;99.90
69261;DHT22;56378;52.404;20.816;2024-01-11T14:18:41;-0.60;99.90
69261;DHT22;56378;52.404;20.816;2024-01-11T14:21:07;-0.60;99.90
69261;DHT22;56378;52.404;20.816;2024-01-11T14:23:34;-0.60;99.90
69261;DHT22;56378;52.404;20.816;2024-01-11T14:25:59;-0.50;99.90
69261;DHT22;56378;52.404;20.816;2024-01-11T14:28:25;-0.50;99.90
69261;DHT22;56378;52.404;20.816;2024-01-11T14:30:51;-0.40;99.90
69261;DHT22;56378;52.404;20.816;2024-01-11T14:33:16;-0.40;99.90
69261;DHT22;56378;52.404;20.816;2024-01-11T14:35:44;-0.40;99.90
69261;DHT22;56378;52.404;20.816;2024-01-11T14:38:10;-0.40;99.90
69261;DHT22;56378;52.404;20.816;2024-01-11T14:40:35;-0.30;99.90
69261;DHT22;56378;52.404;20.816;2024-01-11T14:43:01;-0.30;99.90
69261;DHT22;56378;52.404;20.816;2024-01-11T14:45:27;-0.30;99.90
69261;DHT22;56378;52.404;20.816;2024-01-11T14:47:53;-0.30;99.90
69261;DHT22;56378;52.404;20.816;2024-01-11T14:50:19;-0.30;99.90
69261;DHT22;56378;52.404;20.816;2024-01-11T14:52:45;-0.30;99.90
69261;DHT22;56378;52.404;20.816;2024-01-11T14:55:11;-0.20;99.90
69261;DHT22;56378;52.404;20.816;2024-01-11T14:57:39;-0.20;99.90
69261;DHT22;56378;52.404;20.816;2024-01-11T15:00:05;-0.20;99.90
69261;DHT22;56378;52.404;20.816;2024-01-11T15:02:33;-0.10;99.90
69261;DHT22;56378;52.404;20.816;2024-01-11T15:04:59;-0.10;99.90
69261;DHT22;56378;52.404;20.816;2024-01-11T15:07:25;-0.20;99.90
69261;DHT22;56378;52.404;20.816;2024-01-11T15:09:51;-0.10;99.90
69261;DHT22;56378;52.404;20.816;2024-01-11T15:12:17;-0.20;99.90
69261;DHT22;56378;52.404;20.816;2024-01-11T15:14:42;-0.10;99.90
69261;DHT22;56378;52.404;20.816;2024-01-11T15:17:09;-0.20;99.90